Time;durP1;ratioP1;P1;durP2;ratioP2;P2;SDS_P1;SDS_P2;PMS_P1;PMS_P2;Temp;Humidity;BMP_temperature;BMP_pressure;BME280_temperature;BME280_humidity;BME280_pressure;Samples;Min_cycle;Max_cycle;Signal;HPM_P1;HPM_P2
2023/01/12 00:02:04;;;;;;;17.80;3.13;;;8.90;99.90;;;;;;4999444;28;20030;-69
2023/01/12 00:04:30;;;;;;;15.15;3.25;;;8.80;99.90;;;;;;4996845;28;20367;-70
2023/01/12 00:06:59;;;;;;;17.20;3.03;;;8.90;99.90;;;;;;4999519;28;20133;-71
2023/01/12 00:09:25;;;;;;;16.95;3.03;;;8.90;99.90;;;;;;4999500;28;20042;-69
2023/01/12 00:11:51;;;;;;;11.13;2.22;;;9.00;99.90;;;;;;5000762;28;20040;-70
2023/01/12 00:14:16;;;;;;;12.93;2.15;;;9.00;99.90;;;;;;4996445;28;20910;-70
2023/01/12 00:16:42;;;;;;;15.40;2.22;;;9.00;99.90;;;;;;4999334;28;20038;-69
2023/01/12 00:19:10;;;;;;;13.23;1.77;;;9.00;99.90;;;;;;4998688;28;20141;-70
2023/01/12 00:21:50;;;;;;;12.38;1.88;;;9.00;99.90;;;;;;4998051;28;20038;-73
2023/01/12 00:24:17;;;;;;;16.02;2.58;;;9.00;99.90;;;;;;4996520;28;20046;-70
2023/01/12 00:26:44;;;;;;;14.55;2.58;;;9.00;99.90;;;;;;5002735;28;20041;-70
2023/01/12 00:29:10;;;;;;;15.77;2.45;;;9.00;99.90;;;;;;4997998;28;20573;-71
2023/01/12 00:31:35;;;;;;;20.00;3.10;;;9.00;99.90;;;;;;4998717;28;20041;-70
2023/01/12 00:34:01;;;;;;;17.25;2.92;;;9.00;99.90;;;;;;4997071;28;20053;-71
2023/01/12 00:36:27;;;;;;;15.90;3.88;;;9.00;99.90;;;;;;4999312;28;20037;-71
2023/01/12 00:38:52;;;;;;;16.88;3.65;;;9.00;99.90;;;;;;4996792;28;20027;-71
2023/01/12 00:46:47;;;;;;;28.38;4.13;;;9.10;99.90;;;;;;4999209;28;20577;-70
2023/01/12 00:49:13;;;;;;;17.88;2.67;;;9.10;99.90;;;;;;4999011;28;20129;-70
2023/01/12 00:51:39;;;;;;;21.30;4.15;;;9.10;99.90;;;;;;4997527;28;20445;-69
2023/01/12 00:54:07;;;;;;;21.75;2.70;;;9.00;99.90;;;;;;5001596;28;20042;-69
2023/01/12 00:56:33;;;;;;;31.38;3.47;;;9.00;99.90;;;;;;5005988;28;20042;-69
2023/01/12 00:58:59;;;;;;;35.83;4.40;;;9.10;99.90;;;;;;4996723;28;20038;-69
2023/01/12 01:01:24;;;;;;;33.78;4.53;;;9.10;99.90;;;;;;4998385;28;20092;-69
2023/01/12 01:03:50;;;;;;;32.13;2.95;;;9.10;99.90;;;;;;4996164;28;20066;-69
2023/01/12 01:06:15;;;;;;;23.08;4.10;;;9.10;99.90;;;;;;4998520;28;20038;-69
2023/01/12 01:08:41;;;;;;;22.85;2.25;;;9.00;99.90;;;;;;4997006;28;20034;-69
2023/01/12 01:11:09;;;;;;;20.73;3.72;;;9.10;99.90;;;;;;4998043;28;20030;-69
2023/01/12 01:13:36;;;;;;;25.35;3.00;;;9.00;99.90;;;;;;4997076;28;20034;-68
2023/01/12 01:16:03;;;;;;;17.08;2.63;;;9.00;99.90;;;;;;4996809;28;20563;-68
2023/01/12 01:18:30;;;;;;;21.90;3.67;;;9.00;99.90;;;;;;4996838;28;20100;-69
2023/01/12 01:20:56;;;;;;;21.77;2.65;;;8.90;99.90;;;;;;4998596;28;20041;-69
2023/01/12 01:23:23;;;;;;;32.75;2.80;;;8.90;99.90;;;;;;5001359;28;20026;-69
2023/01/12 01:25:49;;;;;;;23.77;3.00;;;8.90;99.90;;;;;;5003963;28;20041;-69
2023/01/12 01:28:16;;;;;;;21.67;3.20;;;9.00;99.90;;;;;;5002479;28;20413;-69
2023/01/12 01:30:42;;;;;;;23.73;3.60;;;9.00;99.90;;;;;;4998716;28;20868;-68
2023/01/12 01:33:07;;;;;;;13.18;2.72;;;9.00;99.90;;;;;;5001644;28;20479;-68
2023/01/12 01:35:34;;;;;;;20.20;2.90;;;9.00;99.90;;;;;;5002128;28;20105;-69
2023/01/12 01:38:00;;;;;;;18.48;2.95;;;9.00;99.90;;;;;;5001559;28;20042;-68
2023/01/12 01:40:26;;;;;;;21.63;3.90;;;9.00;99.90;;;;;;5007489;28;20405;-68
2023/01/12 01:42:51;;;;;;;17.50;3.75;;;9.00;99.90;;;;;;5000258;28;20027;-69
2023/01/12 01:45:17;;;;;;;21.05;3.35;;;9.00;99.90;;;;;;4999674;28;20080;-69
2023/01/12 01:47:49;;;;;;;17.27;3.25;;;9.00;99.90;;;;;;5004286;28;20068;-68
2023/01/12 01:50:39;;;;;;;32.78;4.57;;;9.00;99.90;;;;;;5002646;28;20073;-69
2023/01/12 01:53:13;;;;;;;26.60;2.88;;;9.10;99.90;;;;;;5002797;28;20075;-69
2023/01/12 01:55:48;;;;;;;30.30;3.30;;;9.10;99.90;;;;;;4999919;28;20365;-67
2023/01/12 01:58:18;;;;;;;21.63;3.40;;;9.10;99.90;;;;;;5002138;28;20026;-69
2023/01/12 02:00:45;;;;;;;18.70;2.92;;;9.20;99.90;;;;;;4998459;28;20038;-69
2023/01/12 02:03:12;;;;;;;18.08;2.05;;;9.20;99.90;;;;;;5001295;28;20034;-69
2023/01/12 02:05:42;;;;;;;17.00;3.22;;;9.10;99.90;;;;;;5000160;28;20030;-67
2023/01/12 02:08:22;;;;;;;10.23;1.50;;;9.10;99.90;;;;;;5001317;28;20399;-67
2023/01/12 02:10:50;;;;;;;7.70;1.77;;;9.20;99.90;;;;;;5021878;28;20030;-68
2023/01/12 02:16:20;;;;;;;8.55;1.58;;;9.10;99.90;;;;;;5007900;28;20037;-68
2023/01/12 02:19:16;;;;;;;9.95;1.63;;;9.10;99.90;;;;;;5003039;28;20059;-68
2023/01/12 02:22:11;;;;;;;6.72;1.23;;;9.00;99.90;;;;;;5016785;28;20104;-69
2023/01/12 02:25:07;;;;;;;9.30;1.08;;;9.00;99.90;;;;;;5001683;28;20037;-68
2023/01/12 02:28:18;;;;;;;6.85;1.52;;;9.00;99.90;;;;;;5008168;28;20034;-69
2023/01/12 02:31:03;;;;;;;8.77;1.73;;;9.00;99.90;;;;;;5002746;28;20156;-69
2023/01/12 02:33:32;;;;;;;12.85;1.25;;;9.00;99.90;;;;;;5001388;28;20045;-69
2023/01/12 02:36:14;;;;;;;10.00;1.70;;;8.90;99.90;;;;;;5000754;28;20495;-69
2023/01/12 02:38:46;;;;;;;5.88;1.40;;;8.90;99.90;;;;;;4999876;28;20034;-68
2023/01/12 02:44:32;;;;;;;7.72;1.10;;;9.00;99.90;;;;;;5002645;28;20097;-69
2023/01/12 02:47:00;;;;;;;14.48;2.88;;;9.00;99.90;;;;;;5005873;28;20049;-70
2023/01/12 02:49:33;;;;;;;9.65;2.00;;;9.00;99.90;;;;;;4998571;28;20402;-69
2023/01/12 02:52:03;;;;;;;8.55;1.70;;;9.00;99.90;;;;;;5000490;28;20041;-68
2023/01/12 02:54:31;;;;;;;7.65;1.35;;;9.00;99.90;;;;;;4998755;28;20050;-69
2023/01/12 02:57:02;;;;;;;16.23;2.33;;;9.10;99.90;;;;;;5000548;28;20030;-67
2023/01/12 02:59:38;;;;;;;8.95;2.38;;;9.00;99.90;;;;;;5000491;28;20502;-68
2023/01/12 03:02:17;;;;;;;14.95;2.33;;;9.00;99.90;;;;;;4999635;28;20052;-69
2023/01/12 03:04:43;;;;;;;11.52;1.83;;;9.10;99.90;;;;;;5002443;28;20177;-70
2023/01/12 03:07:40;;;;;;;13.68;1.90;;;9.10;99.90;;;;;;5000374;28;20113;-68
2023/01/12 03:10:19;;;;;;;16.75;2.47;;;9.10;99.90;;;;;;5001974;28;20122;-68
2023/01/12 03:12:47;;;;;;;10.13;2.38;;;9.10;99.90;;;;;;5002548;28;20034;-68
2023/01/12 03:15:16;;;;;;;13.23;2.58;;;9.10;99.90;;;;;;5001010;28;20033;-67
2023/01/12 03:17:58;;;;;;;12.88;2.60;;;9.10;99.90;;;;;;5006594;28;20034;-68
2023/01/12 03:20:29;;;;;;;15.73;1.92;;;9.10;99.90;;;;;;5002273;28;20030;-69
2023/01/12 03:23:03;;;;;;;14.75;1.92;;;9.10;99.90;;;;;;5000083;28;20046;-68
2023/01/12 03:25:32;;;;;;;10.10;2.20;;;9.10;99.90;;;;;;5002539;28;20037;-69
2023/01/12 03:27:59;;;;;;;14.57;1.83;;;9.10;99.90;;;;;;5008338;28;20080;-69
2023/01/12 03:30:36;;;;;;;13.57;2.72;;;9.00;99.90;;;;;;5015058;28;20038;-69
2023/01/12 03:33:03;;;;;;;12.38;2.50;;;9.00;99.90;;;;;;5011416;28;20409;-68
2023/01/12 03:35:34;;;;;;;14.23;2.22;;;9.00;99.90;;;;;;5007730;28;20026;-69
2023/01/12 03:38:17;;;;;;;5.90;1.30;;;9.00;99.90;;;;;;5004466;28;20034;-69
2023/01/12 03:40:49;;;;;;;9.27;1.65;;;8.90;99.90;;;;;;5007100;28;20033;-69
2023/01/12 03:43:21;;;;;;;11.30;1.73;;;8.90;99.90;;;;;;5001121;28;20040;-70
2023/01/12 03:46:07;;;;;;;9.15;2.03;;;8.90;99.90;;;;;;4998367;28;20022;-69
2023/01/12 03:48:41;;;;;;;4.72;1.23;;;8.90;99.90;;;;;;5000257;28;20050;-69
2023/01/12 03:51:21;;;;;;;5.97;1.10;;;8.90;99.90;;;;;;5001432;28;20034;-69
2023/01/12 03:53:49;;;;;;;4.80;1.37;;;8.90;99.90;;;;;;5000073;28;20140;-68
2023/01/12 03:56:17;;;;;;;7.47;0.93;;;8.90;99.90;;;;;;4995336;28;20503;-69
2023/01/12 03:58:44;;;;;;;4.55;0.82;;;8.90;99.90;;;;;;4999335;28;20034;-68
2023/01/12 04:01:10;;;;;;;12.73;1.25;;;8.90;99.90;;;;;;4997153;28;20077;-69
2023/01/12 04:03:35;;;;;;;8.32;1.10;;;8.80;99.90;;;;;;5003776;28;20402;-68
2023/01/12 04:06:01;;;;;;;6.25;1.17;;;8.80;99.90;;;;;;5002086;28;20117;-70
2023/01/12 04:08:26;;;;;;;10.25;0.80;;;8.80;99.90;;;;;;5001927;28;20037;-68
2023/01/12 04:10:52;;;;;;;5.70;1.05;;;8.80;99.90;;;;;;4998266;28;20041;-69
2023/01/12 04:13:18;;;;;;;6.95;1.35;;;8.80;99.90;;;;;;4998037;28;20132;-68
2023/01/12 04:15:45;;;;;;;8.88;1.33;;;8.80;99.90;;;;;;5015586;28;20031;-68
2023/01/12 04:18:11;;;;;;;6.55;1.40;;;8.80;99.90;;;;;;4999225;28;20029;-71
2023/01/12 04:20:37;;;;;;;9.48;1.15;;;8.80;99.90;;;;;;5000263;28;20034;-68
2023/01/12 04:23:04;;;;;;;5.65;1.40;;;8.80;99.90;;;;;;4996505;28;20403;-71
2023/01/12 04:25:29;;;;;;;6.28;1.17;;;8.80;99.90;;;;;;4998126;28;20027;-69
2023/01/12 04:28:01;;;;;;;7.47;1.33;;;8.80;99.90;;;;;;5003206;28;20068;-69
2023/01/12 04:30:27;;;;;;;8.95;1.80;;;8.80;99.90;;;;;;4996591;28;20027;-68
2023/01/12 04:32:55;;;;;;;6.82;1.45;;;8.80;99.90;;;;;;4995963;28;20030;-70
2023/01/12 04:35:21;;;;;;;9.68;1.15;;;8.80;99.90;;;;;;4995959;28;20029;-70
2023/01/12 04:37:47;;;;;;;10.82;1.67;;;8.80;99.90;;;;;;4997423;28;20030;-69
2023/01/12 04:40:14;;;;;;;7.82;1.65;;;8.90;99.90;;;;;;4999864;28;20060;-68
2023/01/12 04:43:00;;;;;;;6.90;1.48;;;8.90;99.90;;;;;;4999618;28;20034;-69
2023/01/12 04:45:27;;;;;;;7.22;1.23;;;8.90;99.90;;;;;;4999641;28;20368;-69
2023/01/12 04:47:53;;;;;;;10.90;0.90;;;8.90;99.90;;;;;;4997878;28;20030;-69
2023/01/12 04:50:18;;;;;;;6.38;1.30;;;8.90;99.90;;;;;;4997950;28;20029;-69
2023/01/12 04:52:44;;;;;;;5.03;1.40;;;8.90;99.90;;;;;;4996158;28;20395;-70
2023/01/12 04:55:10;;;;;;;6.53;1.10;;;8.90;99.90;;;;;;4998715;28;20030;-69
2023/01/12 04:57:35;;;;;;;5.47;0.90;;;8.90;99.90;;;;;;5011153;28;20578;-69
2023/01/12 05:00:03;;;;;;;3.90;0.90;;;9.00;99.90;;;;;;4998632;28;20034;-68
2023/01/12 05:02:29;;;;;;;3.78;0.70;;;8.90;99.90;;;;;;4996224;28;20030;-69
2023/01/12 05:04:54;;;;;;;6.22;0.65;;;8.90;99.90;;;;;;4998191;28;20081;-69
2023/01/12 05:07:20;;;;;;;3.97;0.75;;;8.90;99.90;;;;;;4996096;28;20030;-69
2023/01/12 05:12:30;;;;;;;8.57;1.50;;;9.00;99.90;;;;;;4995668;28;20557;-70
2023/01/12 05:14:55;;;;;;;5.70;0.73;;;9.00;99.90;;;;;;4996386;28;20038;-70
2023/01/12 05:17:21;;;;;;;3.60;0.55;;;9.00;99.90;;;;;;4996520;28;20383;-69
2023/01/12 05:19:48;;;;;;;11.00;0.75;;;9.00;99.90;;;;;;4997970;28;20505;-69
2023/01/12 05:22:14;;;;;;;2.60;0.60;;;9.00;99.90;;;;;;4996002;28;20038;-69
2023/01/12 05:24:40;;;;;;;3.00;0.75;;;9.00;99.90;;;;;;4999019;28;20862;-70
2023/01/12 05:27:05;;;;;;;2.30;0.40;;;9.10;99.90;;;;;;5000441;28;20038;-70
2023/01/12 05:29:31;;;;;;;5.43;0.63;;;9.10;99.90;;;;;;4998827;28;20046;-69
2023/01/12 05:31:56;;;;;;;2.10;0.50;;;9.10;99.90;;;;;;4996619;28;20502;-69
2023/01/12 05:34:22;;;;;;;7.72;1.10;;;9.10;99.90;;;;;;4996828;28;20035;-70
2023/01/12 05:36:48;;;;;;;4.50;0.85;;;9.10;99.90;;;;;;4996663;28;20034;-70
2023/01/12 05:39:13;;;;;;;7.53;1.08;;;9.10;99.90;;;;;;5010134;28;20435;-69
2023/01/12 05:43:49;;;;;;;2.38;0.50;;;9.10;99.90;;;;;;4998527;28;20034;-70
2023/01/12 05:44:27;;;;;;;2.58;0.30;;;9.10;99.90;;;;;;4996751;28;20038;-69
2023/01/12 05:46:53;;;;;;;0.30;0.15;;;9.10;99.90;;;;;;5013971;28;20034;-69
2023/01/12 05:49:18;;;;;;;2.03;0.30;;;9.10;99.90;;;;;;4995423;28;20050;-70
2023/01/12 05:51:44;;;;;;;5.57;0.50;;;9.10;99.90;;;;;;4999201;28;20041;-69
2023/01/12 05:54:10;;;;;;;1.25;0.75;;;9.10;99.90;;;;;;4995178;28;20232;-69
2023/01/12 05:56:35;;;;;;;3.30;0.43;;;9.10;99.90;;;;;;4998901;28;20510;-69
2023/01/12 05:59:03;;;;;;;4.57;0.70;;;9.20;99.90;;;;;;4996086;28;20039;-69
2023/01/12 06:01:30;;;;;;;1.20;0.20;;;9.20;99.90;;;;;;4998859;28;20037;-68
2023/01/12 06:03:58;;;;;;;7.15;1.65;;;9.10;99.90;;;;;;4995543;28;20035;-69
2023/01/12 06:06:25;;;;;;;2.45;0.45;;;9.10;99.90;;;;;;5002207;28;20054;-68
2023/01/12 06:08:52;;;;;;;2.38;0.20;;;9.10;99.90;;;;;;5010928;28;20056;-68
2023/01/12 06:14:03;;;;;;;2.55;0.30;;;9.10;99.90;;;;;;5006366;28;20033;-70
2023/01/12 06:16:28;;;;;;;2.10;0.30;;;9.20;99.90;;;;;;5012676;28;20048;-69
2023/01/12 06:18:54;;;;;;;2.17;0.17;;;9.20;99.90;;;;;;5011279;28;20030;-69
2023/01/12 06:21:20;;;;;;;1.73;0.22;;;9.30;99.90;;;;;;5010209;28;20117;-71
2023/01/12 06:23:46;;;;;;;3.30;0.40;;;9.20;99.90;;;;;;5009095;28;20132;-69
2023/01/12 06:26:12;;;;;;;3.38;0.40;;;9.20;99.90;;;;;;5011676;28;20046;-69
2023/01/12 06:28:39;;;;;;;3.20;0.20;;;9.20;99.90;;;;;;5010275;28;20459;-69
2023/01/12 06:31:08;;;;;;;4.82;1.27;;;9.30;99.90;;;;;;5008994;28;20076;-69
2023/01/12 06:33:34;;;;;;;0.85;0.20;;;9.40;99.90;;;;;;5007885;28;20030;-69
2023/01/12 06:36:00;;;;;;;2.95;0.20;;;9.40;99.90;;;;;;5007664;28;20042;-67
2023/01/12 06:38:28;;;;;;;4.85;0.90;;;9.40;99.90;;;;;;5008684;28;20088;-69
2023/01/12 06:40:56;;;;;;;1.55;0.63;;;9.40;99.90;;;;;;5012053;28;20066;-70
2023/01/12 06:43:22;;;;;;;1.88;0.30;;;9.40;99.90;;;;;;5006785;28;20038;-70
2023/01/12 06:45:47;;;;;;;2.85;0.75;;;9.50;99.90;;;;;;5008002;28;20036;-70
2023/01/12 06:48:13;;;;;;;2.78;0.50;;;9.50;99.90;;;;;;5008267;28;20042;-70
2023/01/12 06:50:39;;;;;;;3.92;0.50;;;9.60;99.90;;;;;;5010952;28;20786;-69
2023/01/12 06:53:06;;;;;;;1.95;0.40;;;9.60;99.90;;;;;;5009448;28;20033;-70
2023/01/12 06:55:32;;;;;;;2.53;0.50;;;9.60;99.90;;;;;;5009538;28;20486;-71
2023/01/12 06:58:02;;;;;;;5.30;1.23;;;9.70;99.90;;;;;;5007966;28;20056;-70
2023/01/12 07:00:28;;;;;;;4.95;0.57;;;9.80;99.90;;;;;;5008431;28;20372;-69
2023/01/12 07:02:54;;;;;;;8.90;0.77;;;9.90;99.90;;;;;;5008297;28;20056;-70
2023/01/12 07:05:19;;;;;;;3.78;0.60;;;9.90;99.90;;;;;;5006845;28;20034;-70
2023/01/12 07:07:45;;;;;;;4.72;0.75;;;9.80;99.90;;;;;;5008941;28;20030;-71
2023/01/12 07:10:11;;;;;;;3.05;0.73;;;9.90;99.90;;;;;;5008822;28;20452;-71
2023/01/12 07:12:37;;;;;;;6.95;0.88;;;9.90;99.90;;;;;;5010481;28;20042;-71
2023/01/12 07:15:03;;;;;;;12.43;1.20;;;10.00;99.90;;;;;;5006483;28;20525;-71
2023/01/12 07:17:29;;;;;;;7.32;0.80;;;10.00;99.90;;;;;;5008983;28;20033;-70
2023/01/12 07:19:55;;;;;;;7.88;1.00;;;10.10;99.90;;;;;;5005875;28;20030;-71
2023/01/12 07:22:20;;;;;;;10.57;1.98;;;10.10;99.90;;;;;;5007974;28;20052;-71
2023/01/12 07:24:46;;;;;;;9.02;1.00;;;10.20;99.90;;;;;;5009896;28;20066;-71
2023/01/12 07:27:12;;;;;;;13.35;2.60;;;10.20;99.90;;;;;;5008148;28;20022;-69
2023/01/12 07:29:38;;;;;;;12.52;1.27;;;10.20;99.90;;;;;;5008372;28;20052;-71
2023/01/12 07:32:04;;;;;;;13.88;2.08;;;10.30;99.90;;;;;;5008911;28;20037;-72
2023/01/12 07:34:30;;;;;;;10.40;1.02;;;10.30;99.90;;;;;;5009518;28;20034;-71
2023/01/12 07:36:56;;;;;;;9.57;0.98;;;10.30;99.90;;;;;;5007176;28;20548;-70
2023/01/12 07:39:21;;;;;;;20.63;2.13;;;10.30;99.90;;;;;;5005215;28;20063;-71
2023/01/12 07:44:31;;;;;;;13.80;1.77;;;10.40;99.90;;;;;;5007055;28;20115;-70
2023/01/12 07:46:58;;;;;;;12.20;1.20;;;10.40;99.90;;;;;;5008894;28;20479;-71
2023/01/12 07:49:24;;;;;;;5.88;1.52;;;10.40;99.90;;;;;;5005969;28;20521;-70
2023/01/12 07:51:52;;;;;;;5.93;1.10;;;10.50;99.90;;;;;;5008046;28;20510;-70
2023/01/12 07:54:18;;;;;;;7.60;1.00;;;10.40;99.90;;;;;;5006597;28;20049;-70
2023/01/12 07:56:44;;;;;;;15.38;1.25;;;10.40;99.90;;;;;;5007236;28;20084;-71
2023/01/12 07:59:09;;;;;;;14.75;1.45;;;10.40;99.90;;;;;;5007695;28;20533;-72
2023/01/12 08:01:35;;;;;;;8.38;1.70;;;10.40;99.90;;;;;;5006275;28;20034;-70
2023/01/12 08:04:01;;;;;;;14.93;2.08;;;10.50;99.90;;;;;;5007551;28;20461;-70
2023/01/12 08:06:27;;;;;;;7.05;1.58;;;10.50;99.90;;;;;;5008432;28;20036;-70
2023/01/12 08:08:53;;;;;;;15.90;1.75;;;10.50;99.90;;;;;;5007889;28;20042;-70
2023/01/12 08:11:19;;;;;;;16.80;2.15;;;10.50;99.90;;;;;;5004259;28;20042;-70
2023/01/12 08:13:44;;;;;;;17.60;1.30;;;10.50;99.90;;;;;;5006275;28;20034;-70
2023/01/12 08:16:27;;;;;;;12.82;1.98;;;10.60;99.90;;;;;;5007206;28;20033;-70
2023/01/12 08:19:04;;;;;;;23.40;2.42;;;10.60;99.90;;;;;;5007496;28;20120;-70
2023/01/12 08:21:35;;;;;;;27.45;1.98;;;10.60;99.90;;;;;;5001970;28;20184;-71
2023/01/12 08:24:05;;;;;;;14.82;2.00;;;10.60;99.90;;;;;;5007062;28;20809;-71
2023/01/12 08:26:35;;;;;;;10.25;2.28;;;10.60;99.90;;;;;;5007147;28;20045;-70
2023/01/12 08:29:09;;;;;;;16.25;1.65;;;10.60;99.90;;;;;;5007820;28;20415;-71
2023/01/12 08:31:36;;;;;;;14.43;2.38;;;10.50;99.90;;;;;;5006263;28;20042;-70
2023/01/12 08:34:02;;;;;;;14.77;2.17;;;10.60;99.90;;;;;;5005902;28;20034;-70
2023/01/12 08:36:29;;;;;;;14.93;2.13;;;10.60;99.90;;;;;;5007493;28;20087;-71
2023/01/12 08:38:56;;;;;;;14.63;2.08;;;10.60;99.90;;;;;;5008913;28;20036;-71
2023/01/12 08:41:31;;;;;;;21.23;2.60;;;10.60;99.90;;;;;;5003464;28;20136;-71
2023/01/12 08:44:01;;;;;;;15.88;2.00;;;10.70;99.90;;;;;;5004105;28;20036;-71
2023/01/12 08:46:36;;;;;;;16.65;1.80;;;10.70;99.90;;;;;;5005345;28;20068;-71
2023/01/12 08:49:08;;;;;;;11.10;1.48;;;10.70;99.90;;;;;;5006111;28;20077;-70
2023/01/12 08:51:34;;;;;;;14.85;1.92;;;10.70;99.90;;;;;;5006157;28;20072;-71
2023/01/12 08:54:01;;;;;;;15.20;2.00;;;10.70;99.90;;;;;;5004243;28;20084;-70
2023/01/12 08:56:27;;;;;;;20.88;2.00;;;10.70;99.90;;;;;;5005587;28;20034;-71
2023/01/12 08:58:52;;;;;;;8.98;1.80;;;10.80;99.90;;;;;;5005787;28;20053;-70
2023/01/12 09:01:19;;;;;;;15.80;1.85;;;10.70;99.90;;;;;;5006423;28;20649;-70
2023/01/12 09:03:46;;;;;;;11.43;2.10;;;10.70;99.90;;;;;;5005852;28;21181;-70
2023/01/12 09:06:26;;;;;;;17.63;2.30;;;10.70;99.90;;;;;;5005014;28;20387;-71
2023/01/12 09:08:57;;;;;;;11.80;1.58;;;10.70;99.90;;;;;;5004356;28;20045;-71
2023/01/12 09:11:23;;;;;;;15.60;2.30;;;10.70;99.90;;;;;;5003683;28;20438;-71
2023/01/12 09:13:49;;;;;;;16.80;2.42;;;10.80;99.90;;;;;;5006054;28;20410;-71
2023/01/12 09:16:16;;;;;;;25.20;2.30;;;10.80;99.90;;;;;;5006373;28;20046;-72
2023/01/12 09:18:42;;;;;;;19.25;2.03;;;10.80;99.90;;;;;;5006465;28;20488;-71
2023/01/12 09:21:13;;;;;;;12.90;1.73;;;10.80;99.90;;;;;;5004456;28;20044;-71
2023/01/12 09:23:39;;;;;;;13.85;2.88;;;10.80;99.90;;;;;;5004860;28;20070;-71
2023/01/12 09:26:07;;;;;;;21.45;2.95;;;10.80;99.90;;;;;;5006837;28;20030;-69
2023/01/12 09:28:33;;;;;;;19.85;2.65;;;10.90;99.90;;;;;;5003902;28;20053;-71
2023/01/12 09:31:10;;;;;;;21.88;3.17;;;10.90;99.90;;;;;;5003692;28;20033;-72
2023/01/12 09:33:38;;;;;;;25.48;2.75;;;10.90;99.90;;;;;;5002709;28;20034;-72
2023/01/12 09:36:05;;;;;;;19.13;3.20;;;10.90;99.90;;;;;;5007603;28;20030;-71
2023/01/12 09:38:31;;;;;;;19.83;3.63;;;10.90;99.90;;;;;;5008860;28;20706;-71
2023/01/12 09:40:59;;;;;;;23.85;2.45;;;10.90;99.90;;;;;;5004657;28;20033;-72
2023/01/12 09:46:57;;;;;;;16.45;2.67;;;10.90;99.90;;;;;;5008118;28;20045;-71
2023/01/12 09:49:30;;;;;;;20.10;3.78;;;11.00;99.90;;;;;;5002784;28;20045;-71
2023/01/12 09:52:00;;;;;;;13.80;2.35;;;11.00;99.90;;;;;;5010105;28;20030;-71
2023/01/12 09:54:26;;;;;;;34.37;4.67;;;11.00;99.90;;;;;;5008414;28;20068;-72
2023/01/12 09:57:03;;;;;;;18.33;3.00;;;11.00;99.90;;;;;;5009232;28;20368;-71
2023/01/12 09:59:55;;;;;;;18.25;2.38;;;11.10;99.90;;;;;;5007108;28;20126;-71
2023/01/12 10:02:21;;;;;;;27.92;3.05;;;11.10;99.90;;;;;;5007426;28;20136;-71
2023/01/12 10:04:49;;;;;;;23.75;3.22;;;11.20;99.90;;;;;;5008898;28;20122;-71
2023/01/12 10:07:17;;;;;;;17.67;2.13;;;11.20;99.90;;;;;;5008333;28;20134;-72
2023/01/12 10:09:43;;;;;;;17.08;2.03;;;11.20;99.90;;;;;;5007554;28;20042;-72
2023/01/12 10:12:21;;;;;;;13.98;2.45;;;11.20;99.90;;;;;;5008504;28;20038;-72
2023/01/12 10:15:02;;;;;;;12.25;2.15;;;11.10;99.90;;;;;;5005843;28;20117;-72
2023/01/12 10:17:37;;;;;;;18.23;2.60;;;11.10;99.90;;;;;;5006225;28;20087;-70
2023/01/12 10:20:19;;;;;;;16.42;3.85;;;11.10;99.90;;;;;;5008563;28;20634;-71
2023/01/12 10:22:48;;;;;;;16.63;2.00;;;11.10;99.90;;;;;;5008606;28;20049;-71
2023/01/12 10:25:29;;;;;;;18.08;2.65;;;11.10;99.90;;;;;;5006394;28;20484;-71
2023/01/12 10:27:57;;;;;;;12.35;2.15;;;11.00;99.90;;;;;;5005236;28;20124;-72
2023/01/12 10:30:38;;;;;;;26.33;2.90;;;11.10;99.90;;;;;;5006865;28;20517;-71
2023/01/12 10:33:13;;;;;;;13.48;1.80;;;11.10;99.90;;;;;;5006683;28;20517;-71
2023/01/12 10:35:47;;;;;;;17.70;3.25;;;11.00;99.90;;;;;;5006167;28;20426;-70
2023/01/12 10:38:26;;;;;;;14.50;3.08;;;11.00;99.90;;;;;;5005145;28;20033;-71
2023/01/12 10:41:05;;;;;;;20.75;2.70;;;11.00;99.90;;;;;;5006545;28;20069;-72
2023/01/12 10:43:33;;;;;;;19.58;2.55;;;11.00;99.90;;;;;;5006642;28;20390;-70
2023/01/12 10:46:09;;;;;;;15.77;2.33;;;11.00;99.90;;;;;;5007230;28;20049;-71
2023/01/12 10:48:37;;;;;;;12.90;1.48;;;11.00;99.90;;;;;;5005540;28;20045;-71
2023/01/12 10:51:05;;;;;;;15.00;2.22;;;11.00;99.90;;;;;;5007218;28;20034;-71
2023/01/12 10:53:41;;;;;;;9.57;2.65;;;11.00;99.90;;;;;;5005996;28;20065;-71
2023/01/12 10:56:34;;;;;;;16.83;1.55;;;10.90;99.90;;;;;;5005686;28;20526;-71
2023/01/12 10:59:11;;;;;;;12.55;1.77;;;11.00;99.90;;;;;;4998722;28;20034;-72
2023/01/12 11:01:43;;;;;;;13.88;1.83;;;11.00;99.90;;;;;;5006777;28;20045;-71
2023/01/12 11:04:13;;;;;;;18.65;2.75;;;10.90;99.90;;;;;;5004820;28;20045;-72
2023/01/12 11:06:41;;;;;;;14.93;2.10;;;10.90;99.90;;;;;;5005235;28;20720;-71
2023/01/12 11:09:21;;;;;;;8.55;1.77;;;11.00;99.90;;;;;;5007160;28;20399;-71
2023/01/12 11:11:55;;;;;;;18.27;2.33;;;11.00;99.90;;;;;;5004885;28;20530;-71
2023/01/12 11:14:36;;;;;;;18.23;2.28;;;11.00;99.90;;;;;;5004463;28;20104;-71
2023/01/12 11:17:42;;;;;;;14.55;2.72;;;11.00;99.90;;;;;;5003885;28;20359;-71
2023/01/12 11:20:46;;;;;;;16.05;3.00;;;11.10;99.90;;;;;;4990690;28;20042;-70
2023/01/12 11:23:43;;;;;;;17.02;2.10;;;11.00;99.90;;;;;;5005407;28;20061;-73
2023/01/12 11:26:22;;;;;;;20.70;1.80;;;11.00;99.90;;;;;;5004369;28;20038;-71
2023/01/12 11:28:53;;;;;;;17.17;2.40;;;11.00;99.90;;;;;;5006919;28;20079;-72
2023/01/12 11:31:24;;;;;;;19.00;2.10;;;11.00;99.90;;;;;;5003470;28;20038;-71
2023/01/12 11:34:02;;;;;;;20.60;2.60;;;11.00;99.90;;;;;;5008655;28;20041;-71
2023/01/12 11:36:37;;;;;;;7.47;1.50;;;11.00;99.90;;;;;;5005592;28;20160;-71
2023/01/12 11:39:19;;;;;;;15.10;2.50;;;11.00;99.90;;;;;;5005847;28;20083;-71
2023/01/12 11:44:40;;;;;;;18.75;3.15;;;11.10;99.90;;;;;;5007202;28;20108;-71
2023/01/12 11:47:12;;;;;;;17.95;2.38;;;11.10;99.90;;;;;;5003983;28;20045;-70
2023/01/12 11:49:54;;;;;;;21.48;2.40;;;11.10;99.90;;;;;;5003648;28;20056;-71
2023/01/12 11:52:19;;;;;;;18.02;1.60;;;11.00;99.90;;;;;;5003224;28;20048;-71
2023/01/12 11:54:45;;;;;;;19.33;2.42;;;11.00;99.90;;;;;;5006933;28;20030;-71
2023/01/12 11:57:44;;;;;;;15.65;1.95;;;11.00;99.90;;;;;;5005475;28;20406;-71
2023/01/12 12:00:26;;;;;;;10.57;2.35;;;11.10;99.90;;;;;;5006103;28;20030;-71
2023/01/12 12:03:12;;;;;;;15.40;1.42;;;11.10;99.90;;;;;;5002590;28;20038;-70
2023/01/12 12:06:09;;;;;;;13.70;1.52;;;11.00;99.90;;;;;;5003855;28;20030;-71
2023/01/12 12:08:53;;;;;;;20.70;3.60;;;11.10;99.90;;;;;;5005131;28;20048;-72
2023/01/12 12:11:43;;;;;;;12.02;2.33;;;11.10;99.90;;;;;;5002946;28;20061;-71
2023/01/12 12:14:25;;;;;;;22.40;3.38;;;11.10;99.90;;;;;;5004028;28;20038;-72
2023/01/12 12:17:03;;;;;;;14.57;2.38;;;11.10;99.90;;;;;;5003607;28;20041;-70
2023/01/12 12:19:47;;;;;;;17.40;2.05;;;11.00;99.90;;;;;;5006015;28;20447;-70
2023/01/12 12:22:19;;;;;;;14.15;2.35;;;11.00;99.90;;;;;;5004458;28;20657;-70
2023/01/12 12:25:01;;;;;;;13.35;2.85;;;11.00;99.90;;;;;;5005137;28;20498;-71
2023/01/12 12:27:27;;;;;;;10.57;2.83;;;11.10;99.90;;;;;;5002969;28;20478;-70
2023/01/12 12:29:55;;;;;;;12.35;1.60;;;11.10;99.90;;;;;;5003554;28;20025;-71
2023/01/12 12:32:45;;;;;;;16.95;2.53;;;11.00;99.90;;;;;;5002389;28;20052;-70
2023/01/12 12:35:31;;;;;;;8.73;1.50;;;11.00;99.90;;;;;;5002466;28;20083;-71
2023/01/12 12:38:06;;;;;;;15.55;1.65;;;11.10;99.90;;;;;;5004722;28;20030;-71
2023/01/12 12:46:40;;;;;;;7.72;0.80;;;11.10;99.90;;;;;;5005392;28;20520;-72
2023/01/12 12:49:14;;;;;;;10.93;0.82;;;11.10;99.90;;;;;;5006236;28;20041;-70
2023/01/12 12:51:41;;;;;;;7.28;0.60;;;11.00;99.90;;;;;;5004475;28;20033;-70
2023/01/12 12:54:14;;;;;;;5.60;0.50;;;11.00;99.90;;;;;;5002844;28;20041;-71
2023/01/12 12:56:40;;;;;;;3.88;0.50;;;11.00;99.90;;;;;;5004354;28;20127;-70
2023/01/12 12:59:26;;;;;;;5.07;0.75;;;11.10;99.90;;;;;;5005764;28;20030;-70
2023/01/12 13:01:56;;;;;;;1.33;0.10;;;11.00;99.90;;;;;;5003283;28;20076;-70
2023/01/12 13:04:41;;;;;;;4.00;0.20;;;11.00;99.90;;;;;;5004296;28;21127;-71
2023/01/12 13:07:14;;;;;;;3.25;0.30;;;11.00;99.90;;;;;;5005377;28;20055;-70
2023/01/12 13:09:41;;;;;;;1.17;0.50;;;11.10;99.90;;;;;;5007325;28;20046;-69
2023/01/12 13:12:06;;;;;;;0.60;0.20;;;11.00;99.90;;;;;;5007168;28;20107;-69
2023/01/12 13:14:33;;;;;;;1.17;0.20;;;11.00;99.90;;;;;;5007041;28;20038;-70
2023/01/12 13:17:01;;;;;;;2.30;0.10;;;11.00;99.90;;;;;;5006387;28;20068;-70
2023/01/12 13:20:09;;;;;;;1.35;0.10;;;11.00;99.90;;;;;;5010456;28;20030;-70
2023/01/12 13:22:40;;;;;;;0.95;0.10;;;11.00;99.90;;;;;;4992951;28;20526;-70
2023/01/12 13:25:09;;;;;;;1.73;0.68;;;11.00;99.90;;;;;;4996549;28;20038;-70
2023/01/12 13:30:23;;;;;;;0.73;0.10;;;11.00;99.90;;;;;;4994300;28;20077;-71
2023/01/12 13:33:14;;;;;;;0.93;0.20;;;11.00;99.90;;;;;;5001867;28;20033;-70
2023/01/12 13:35:43;;;;;;;2.00;0.10;;;10.90;99.90;;;;;;4996294;28;20399;-69
2023/01/12 13:38:32;;;;;;;1.00;0.17;;;10.90;99.90;;;;;;4995006;28;20038;-69
2023/01/12 13:41:13;;;;;;;0.40;0.10;;;10.90;99.90;;;;;;4992247;28;20086;-70